createdAt,value
2023-03-21T00:00:41.394Z,68.57
2023-03-21T00:03:09.185Z,68.91
2023-03-21T00:05:43.111Z,69.14
2023-03-21T00:08:10.489Z,68.82
2023-03-21T00:10:41.684Z,68.65
2023-03-21T00:13:15.507Z,69.14
2023-03-21T00:16:11.112Z,69.54
2023-03-21T00:18:46.659Z,69.41
2023-03-21T00:21:40.960Z,69.19
2023-03-21T00:24:03.041Z,69.98
2023-03-21T00:26:30.504Z,69.88
2023-03-21T00:28:57.805Z,69.58
2023-03-21T00:31:25.128Z,70.08
2023-03-21T00:33:52.403Z,70.46
2023-03-21T00:36:19.774Z,71.38
2023-03-21T00:38:47.165Z,71.09
2023-03-21T00:41:26.378Z,70.73
2023-03-21T00:44:04.792Z,70.54
2023-03-21T00:46:43.707Z,70.51
2023-03-21T00:49:14.608Z,70.43
2023-03-21T00:51:43.683Z,70.33
2023-03-21T00:54:12.052Z,70.24
2023-03-21T00:56:39.512Z,70.99
2023-03-21T00:59:06.771Z,72.01
2023-03-21T01:01:34.714Z,71.62
2023-03-21T01:04:07.855Z,71.18
2023-03-21T01:06:40.413Z,70.83
2023-03-21T01:09:25.693Z,70.07
2023-03-21T01:11:53.001Z,70.69
2023-03-21T01:14:23.569Z,71.11
2023-03-21T01:16:52.326Z,69.61
2023-03-21T01:19:38.019Z,69.63
2023-03-21T01:22:08.765Z,69.81
2023-03-21T01:24:40.495Z,68.50
2023-03-21T01:27:14.153Z,68.57
2023-03-21T01:29:41.422Z,69.28
2023-03-21T01:32:08.729Z,70.45
2023-03-21T01:34:36.376Z,71.37
2023-03-21T01:37:03.912Z,71.85
2023-03-21T01:39:36.195Z,72.87
2023-03-21T01:42:03.750Z,71.47
2023-03-21T01:44:31.795Z,73.05
2023-03-21T01:47:10.571Z,73.22
2023-03-21T01:50:02.540Z,73.66
2023-03-21T01:52:43.636Z,73.98
2023-03-21T01:55:17.111Z,74.04
2023-03-21T01:58:07.064Z,73.87
2023-03-21T02:00:57.770Z,74.83
2023-03-21T02:03:39.010Z,75.90
2023-03-21T02:06:38.271Z,75.30
2023-03-21T02:09:16.122Z,74.53
2023-03-21T02:11:46.680Z,74.93
2023-03-21T02:14:26.662Z,75.22
2023-03-21T02:17:03.934Z,75.60
2023-03-21T02:20:22.207Z,75.82
2023-03-21T02:23:06.814Z,76.21
2023-03-21T02:25:46.312Z,76.08
2023-03-21T02:28:49.358Z,75.83
2023-03-21T02:31:52.669Z,75.45
2023-03-21T02:34:32.210Z,76.09
2023-03-21T02:37:03.853Z,76.00
2023-03-21T02:39:52.337Z,74.93
2023-03-21T02:42:34.991Z,75.40
2023-03-21T02:45:02.425Z,75.32
2023-03-21T02:47:43.030Z,75.29
2023-03-21T02:50:21.212Z,76.43
2023-03-21T02:52:48.502Z,76.52
2023-03-21T02:55:24.735Z,76.29
2023-03-21T02:58:06.904Z,76.14
2023-03-21T03:00:40.300Z,76.37
2023-03-21T03:03:10.527Z,76.26
2023-03-21T03:05:49.503Z,76.14
2023-03-21T03:08:53.076Z,76.68
2023-03-21T03:11:29.590Z,77.08
2023-03-21T03:14:38.578Z,77.39
2023-03-21T03:17:10.839Z,76.92
2023-03-21T03:20:19.664Z,76.47
2023-03-21T03:23:06.166Z,76.55
2023-03-21T03:25:52.068Z,76.08
2023-03-21T03:28:23.367Z,76.81
2023-03-21T03:31:07.645Z,77.11
2023-03-21T03:33:44.131Z,77.59
2023-03-21T03:36:28.370Z,76.98
2023-03-21T03:38:59.200Z,74.89
2023-03-21T03:41:30.141Z,75.99
2023-03-21T03:44:04.211Z,76.22
2023-03-21T03:47:08.192Z,77.49
2023-03-21T03:49:38.925Z,77.37
2023-03-21T03:52:28.020Z,76.90
2023-03-21T03:55:12.145Z,76.47
2023-03-21T03:57:42.033Z,75.45
2023-03-21T04:00:15.577Z,75.52
2023-03-21T04:02:46.133Z,75.44
2023-03-21T04:05:21.420Z,75.70
2023-03-21T04:07:51.150Z,75.65
2023-03-21T04:10:22.808Z,75.17
2023-03-21T04:12:50.521Z,75.08
2023-03-21T04:15:38.092Z,75.43
2023-03-21T04:18:12.140Z,75.26
2023-03-21T04:20:39.474Z,76.12
2023-03-21T04:23:08.782Z,75.75
2023-03-21T04:25:38.661Z,76.38
2023-03-21T04:28:07.992Z,76.78
2023-03-21T04:30:35.316Z,76.68
2023-03-21T04:33:08.059Z,76.90
2023-03-21T04:35:37.764Z,76.19
2023-03-21T04:38:06.301Z,75.63
2023-03-21T04:40:33.593Z,76.05
2023-03-21T04:43:01.522Z,75.86
2023-03-21T04:45:29.092Z,76.23
2023-03-21T04:47:57.485Z,76.17
2023-03-21T04:50:25.152Z,75.59
2023-03-21T04:52:52.532Z,75.56
2023-03-21T04:55:21.721Z,75.29
2023-03-21T04:57:49.242Z,75.37
2023-03-21T05:00:17.057Z,74.71
2023-03-21T05:02:44.556Z,75.33
2023-03-21T05:05:12.274Z,75.21
2023-03-21T05:07:40.461Z,74.31
2023-03-21T05:10:09.453Z,74.33
2023-03-21T05:12:38.595Z,73.92
2023-03-21T05:15:07.065Z,75.41
2023-03-21T05:17:34.443Z,76.31
2023-03-21T05:20:02.166Z,77.00
2023-03-21T05:22:29.484Z,76.48
2023-03-21T05:24:58.497Z,76.56
2023-03-21T05:27:38.567Z,76.68
2023-03-21T05:30:12.368Z,76.44
2023-03-21T05:32:39.760Z,76.45
2023-03-21T05:35:10.491Z,75.48
2023-03-21T05:37:38.548Z,75.03
2023-03-21T05:40:08.278Z,74.90
2023-03-21T05:42:37.742Z,74.76
2023-03-21T05:45:15.333Z,74.59
2023-03-21T05:47:42.963Z,74.42
2023-03-21T05:50:13.434Z,73.86
2023-03-21T05:52:44.330Z,74.26
2023-03-21T05:55:14.505Z,73.01
2023-03-21T05:57:43.136Z,72.86
2023-03-21T06:00:18.973Z,73.13
2023-03-21T06:03:00.951Z,73.13
2023-03-21T06:05:48.765Z,72.22
2023-03-21T06:08:22.032Z,72.36
2023-03-21T06:10:49.649Z,70.47
2023-03-21T06:13:17.109Z,69.87
2023-03-21T06:15:44.663Z,69.41
2023-03-21T06:18:19.318Z,69.47
2023-03-21T06:21:16.762Z,69.10
2023-03-21T06:23:44.307Z,69.38
2023-03-21T06:26:12.076Z,68.32
2023-03-21T06:28:40.453Z,69.67
2023-03-21T06:31:08.149Z,70.96
2023-03-21T06:33:38.890Z,70.04
2023-03-21T06:36:07.560Z,70.97
2023-03-21T06:38:38.092Z,70.73
2023-03-21T06:41:06.381Z,70.51
2023-03-21T06:43:41.011Z,70.08
2023-03-21T06:46:16.720Z,70.60
2023-03-21T06:48:52.882Z,67.65
2023-03-21T06:51:20.984Z,66.32
2023-03-21T06:54:08.803Z,64.94
2023-03-21T06:56:45.252Z,64.07
2023-03-21T06:59:16.597Z,65.50
2023-03-21T07:01:55.336Z,66.35
2023-03-21T07:04:24.355Z,65.36
2023-03-21T07:06:52.050Z,60.29
2023-03-21T07:09:24.797Z,60.22
2023-03-21T07:11:55.917Z,61.16
2023-03-21T07:14:52.458Z,60.12
2023-03-21T07:17:24.189Z,61.78
2023-03-21T07:19:52.238Z,57.21
2023-03-21T07:22:23.291Z,54.63
2023-03-21T07:25:04.114Z,51.00
2023-03-21T07:27:40.675Z,44.34
2023-03-21T07:30:13.426Z,43.93
2023-03-21T07:32:41.183Z,45.48
2023-03-21T07:35:23.817Z,47.34
2023-03-21T07:38:05.619Z,49.11
2023-03-21T07:40:33.210Z,48.09
2023-03-21T07:45:30.711Z,45.60
2023-03-21T07:47:58.262Z,39.53
2023-03-21T07:50:25.687Z,37.38
2023-03-21T07:52:53.261Z,37.32
2023-03-21T07:55:20.656Z,37.93
2023-03-21T07:57:51.749Z,37.31
2023-03-21T08:00:23.309Z,35.44
2023-03-21T08:02:59.064Z,35.11
2023-03-21T08:05:33.641Z,36.41
2023-03-21T08:08:01.321Z,41.70
2023-03-21T08:10:28.868Z,41.71
2023-03-21T08:12:56.195Z,41.25
2023-03-21T08:15:23.852Z,42.80
2023-03-21T08:17:51.302Z,38.03
2023-03-21T08:20:21.542Z,36.93
2023-03-21T08:22:52.109Z,37.68
2023-03-21T08:25:20.265Z,37.78
2023-03-21T08:27:48.475Z,36.05
2023-03-21T08:30:17.902Z,35.11
2023-03-21T08:32:46.832Z,34.47
2023-03-21T08:35:16.423Z,34.47
2023-03-21T08:37:46.729Z,35.02
2023-03-21T08:40:38.581Z,40.15
2023-03-21T08:43:06.702Z,43.44
2023-03-21T08:45:34.443Z,45.42
2023-03-21T08:48:02.764Z,46.35
2023-03-21T08:50:32.094Z,46.80
2023-03-21T08:52:59.847Z,47.45
2023-03-21T08:55:28.025Z,47.56
2023-03-21T08:58:13.770Z,46.55
2023-03-21T09:00:41.297Z,46.47
2023-03-21T09:03:11.263Z,46.49
2023-03-21T09:05:41.824Z,45.53
2023-03-21T09:11:27.001Z,46.29
2023-03-21T09:14:11.208Z,46.63
2023-03-21T09:16:39.201Z,45.65
2023-03-21T09:19:09.250Z,45.90
2023-03-21T09:21:40.818Z,45.44
2023-03-21T09:24:08.785Z,45.10
2023-03-21T09:26:37.179Z,44.59
2023-03-21T09:29:06.377Z,44.18
2023-03-21T09:31:33.973Z,43.80
2023-03-21T09:34:02.065Z,44.29
2023-03-21T09:36:30.979Z,44.18
2023-03-21T09:38:58.935Z,43.39
2023-03-21T09:41:37.223Z,43.44
2023-03-21T09:44:36.594Z,42.96
2023-03-21T09:47:14.063Z,41.69
2023-03-21T09:49:43.912Z,40.73
2023-03-21T09:52:17.786Z,40.95
2023-03-21T09:54:45.513Z,40.95
2023-03-21T09:57:32.317Z,40.11
2023-03-21T10:00:10.495Z,39.86
2023-03-21T10:02:57.463Z,39.37
2023-03-21T10:05:27.492Z,39.87
2023-03-21T10:08:32.519Z,39.54
2023-03-21T10:14:46.384Z,41.17
2023-03-21T10:17:34.527Z,41.20
2023-03-21T10:20:29.294Z,41.93
2023-03-21T10:22:57.432Z,41.87
2023-03-21T10:25:27.131Z,41.68
2023-03-21T10:27:54.827Z,41.53
2023-03-21T10:30:43.416Z,42.19
2023-03-21T10:33:26.537Z,41.97
2023-03-21T10:39:30.829Z,42.95
2023-03-21T10:44:57.691Z,42.90
2023-03-21T10:47:30.931Z,43.31
2023-03-21T10:50:12.050Z,43.04
2023-03-21T10:52:49.002Z,42.67
2023-03-21T10:55:21.675Z,43.47
2023-03-21T10:57:59.411Z,43.96
2023-03-21T11:00:34.521Z,42.82
2023-03-21T11:03:02.082Z,42.86
2023-03-21T11:05:37.887Z,42.78
2023-03-21T11:08:10.764Z,42.37
2023-03-21T11:10:48.796Z,42.24
2023-03-21T11:13:40.054Z,41.73
2023-03-21T11:16:11.187Z,41.97
2023-03-21T11:18:43.274Z,41.74
2023-03-21T11:21:12.768Z,42.13
2023-03-21T11:23:47.128Z,42.20
2023-03-21T11:26:37.940Z,42.34
2023-03-21T11:29:21.795Z,42.51
2023-03-21T11:31:49.343Z,42.57
2023-03-21T11:34:45.583Z,42.07
2023-03-21T11:37:38.866Z,41.82
2023-03-21T11:40:18.294Z,41.89
2023-03-21T11:42:56.300Z,41.57
2023-03-21T11:45:40.186Z,41.09
2023-03-21T11:48:14.813Z,40.74
2023-03-21T11:50:47.852Z,40.39
2023-03-21T11:53:32.883Z,40.37
2023-03-21T11:56:12.144Z,40.51
2023-03-21T11:59:04.737Z,39.43
2023-03-21T12:01:55.212Z,38.53
2023-03-21T12:04:48.987Z,38.10
2023-03-21T12:07:26.724Z,38.49
2023-03-21T12:10:32.077Z,39.08
2023-03-21T12:13:07.446Z,40.12
2023-03-21T12:15:45.911Z,40.64
2023-03-21T12:18:42.678Z,40.39
2023-03-21T12:21:31.256Z,39.42
2023-03-21T12:24:18.907Z,39.93
2023-03-21T12:26:52.367Z,39.90
2023-03-21T12:29:43.234Z,39.70
2023-03-21T12:32:26.646Z,40.33
2023-03-21T12:35:15.965Z,40.18
2023-03-21T12:38:21.009Z,40.39
2023-03-21T12:41:03.892Z,40.07
2023-03-21T12:44:10.683Z,40.24
2023-03-21T12:46:42.210Z,40.81
2023-03-21T12:49:12.972Z,40.11
2023-03-21T12:51:46.790Z,40.37
2023-03-21T12:54:33.778Z,39.39
2023-03-21T12:57:23.571Z,38.50
2023-03-21T13:00:11.130Z,38.56
2023-03-21T13:03:02.952Z,39.19
2023-03-21T13:05:34.169Z,39.91
2023-03-21T13:08:27.953Z,39.28
2023-03-21T13:10:56.469Z,39.55
2023-03-21T13:13:48.326Z,39.91
2023-03-21T13:16:36.295Z,39.85
2023-03-21T13:19:16.091Z,39.52
2023-03-21T13:22:01.369Z,40.02
2023-03-21T13:24:33.285Z,40.12
2023-03-21T13:27:09.240Z,39.72
2023-03-21T13:29:46.766Z,40.06
2023-03-21T13:32:26.314Z,38.90
2023-03-21T13:35:20.312Z,39.17
2023-03-21T13:38:04.482Z,39.30
2023-03-21T13:41:01.016Z,39.97
2023-03-21T13:43:46.902Z,40.24
2023-03-21T13:46:50.344Z,40.49
2023-03-21T13:49:32.500Z,41.78
2023-03-21T13:52:01.491Z,42.10
2023-03-21T13:54:30.339Z,41.86
2023-03-21T13:57:01.145Z,41.78
2023-03-21T13:59:38.595Z,40.71
2023-03-21T14:02:28.005Z,41.03
2023-03-21T14:05:17.090Z,40.45
2023-03-21T14:07:45.695Z,39.63
2023-03-21T14:10:21.251Z,39.10
2023-03-21T14:12:48.632Z,39.00
2023-03-21T14:15:20.393Z,39.93
2023-03-21T14:17:57.405Z,39.61
2023-03-21T14:20:29.849Z,39.50
2023-03-21T14:22:57.461Z,40.04
2023-03-21T14:25:31.296Z,40.16
2023-03-21T14:28:00.840Z,40.02
2023-03-21T14:30:39.492Z,40.76
2023-03-21T14:33:33.260Z,41.28
2023-03-21T14:36:23.394Z,41.54
2023-03-21T14:39:05.195Z,41.27
2023-03-21T14:41:33.026Z,41.46
2023-03-21T14:44:53.416Z,40.77
2023-03-21T14:47:29.033Z,41.49
2023-03-21T14:49:57.102Z,40.69
2023-03-21T14:52:32.259Z,40.93
2023-03-21T14:55:00.385Z,41.41
2023-03-21T14:57:31.107Z,41.49
2023-03-21T15:00:02.230Z,41.61
2023-03-21T15:02:32.988Z,41.32
2023-03-21T15:05:27.117Z,41.45
2023-03-21T15:07:58.360Z,41.19
2023-03-21T15:10:26.687Z,41.75
2023-03-21T15:12:58.313Z,41.09
2023-03-21T15:15:27.573Z,41.10
2023-03-21T15:17:56.585Z,41.33
2023-03-21T15:20:26.564Z,41.09
2023-03-21T15:22:58.868Z,41.18
2023-03-21T15:25:27.764Z,41.57
2023-03-21T15:27:55.411Z,41.82
2023-03-21T15:30:28.801Z,41.68
2023-03-21T15:32:56.625Z,41.79
2023-03-21T15:35:31.565Z,42.06
2023-03-21T15:37:59.106Z,42.36
2023-03-21T15:40:28.637Z,41.89
2023-03-21T15:43:15.758Z,42.14
2023-03-21T15:45:57.024Z,42.25
2023-03-21T15:48:28.358Z,42.23
2023-03-21T15:50:55.667Z,42.95
2023-03-21T15:53:23.506Z,42.69
2023-03-21T15:55:57.058Z,42.56
2023-03-21T15:58:26.800Z,43.04
2023-03-21T16:00:58.178Z,43.12
2023-03-21T16:03:30.545Z,43.68
2023-03-21T16:06:10.639Z,43.97
2023-03-21T16:09:03.938Z,43.66
2023-03-21T16:11:47.732Z,43.24
2023-03-21T16:14:15.074Z,43.42
2023-03-21T16:16:42.905Z,43.50
2023-03-21T16:19:10.604Z,43.60
2023-03-21T16:21:41.970Z,43.72
2023-03-21T16:24:11.688Z,44.07
2023-03-21T16:26:44.035Z,44.39
2023-03-21T16:29:12.864Z,44.46
2023-03-21T16:31:40.495Z,44.93
2023-03-21T16:34:08.261Z,45.12
2023-03-21T16:36:37.314Z,45.08
2023-03-21T16:39:17.143Z,45.33
2023-03-21T16:41:44.715Z,45.69
2023-03-21T16:44:12.082Z,46.01
2023-03-21T16:46:42.926Z,46.23
2023-03-21T16:49:24.876Z,46.02
2023-03-21T16:51:53.065Z,45.63
2023-03-21T16:54:21.122Z,46.12
2023-03-21T16:56:55.187Z,46.36
2023-03-21T16:59:22.579Z,46.73
2023-03-21T17:01:50.337Z,46.97
2023-03-21T17:04:18.181Z,46.97
2023-03-21T17:06:47.621Z,47.03
2023-03-21T17:09:16.116Z,46.64
2023-03-21T17:11:43.940Z,46.53
2023-03-21T17:14:12.012Z,46.95
2023-03-21T17:16:40.447Z,47.40
2023-03-21T17:19:14.552Z,47.66
2023-03-21T17:21:42.024Z,47.13
2023-03-21T17:24:09.548Z,47.57
2023-03-21T17:26:37.138Z,46.62
2023-03-21T17:29:04.800Z,46.96
2023-03-21T17:31:36.971Z,46.98
2023-03-21T17:34:04.628Z,47.21
2023-03-21T17:36:33.827Z,47.34
2023-03-21T17:39:01.375Z,47.49
2023-03-21T17:41:28.797Z,47.45
2023-03-21T17:43:57.044Z,48.28
2023-03-21T17:46:25.853Z,48.44
2023-03-21T17:48:53.282Z,48.94
2023-03-21T17:51:23.074Z,49.25
2023-03-21T17:53:51.214Z,49.04
2023-03-21T17:56:22.627Z,49.10
2023-03-21T17:58:49.908Z,49.25
2023-03-21T18:01:17.156Z,49.79
2023-03-21T18:03:44.761Z,50.07
2023-03-21T18:06:17.671Z,50.17
2023-03-21T18:08:45.437Z,50.46
2023-03-21T18:11:13.086Z,51.14
2023-03-21T18:13:41.071Z,51.48
2023-03-21T18:16:09.919Z,51.73
2023-03-21T18:18:38.188Z,51.71
2023-03-21T18:21:06.054Z,52.00
2023-03-21T18:23:33.467Z,51.85
2023-03-21T18:26:00.890Z,52.33
2023-03-21T18:28:28.413Z,52.51
2023-03-21T18:31:17.371Z,52.38
2023-03-21T18:33:45.284Z,52.27
2023-03-21T18:36:14.607Z,51.91
2023-03-21T18:38:42.301Z,52.17
2023-03-21T18:41:09.831Z,52.77
2023-03-21T18:46:25.201Z,53.28
2023-03-21T18:48:52.751Z,53.05
2023-03-21T18:51:20.082Z,53.38
2023-03-21T18:53:47.643Z,52.74
2023-03-21T18:56:57.723Z,52.93
2023-03-21T18:59:03.141Z,53.00
2023-03-21T19:01:31.050Z,53.28
2023-03-21T19:04:30.502Z,53.01
2023-03-21T19:06:47.771Z,53.04
2023-03-21T19:09:15.210Z,52.93
2023-03-21T19:11:42.798Z,53.06
2023-03-21T19:14:11.710Z,53.10
2023-03-21T19:17:06.352Z,51.99
2023-03-21T19:19:27.079Z,51.99
2023-03-21T19:21:54.455Z,52.03
2023-03-21T19:24:27.453Z,53.05
2023-03-21T19:26:55.792Z,53.43
2023-03-21T19:29:23.139Z,53.28
2023-03-21T19:31:51.448Z,53.24
2023-03-21T19:34:19.010Z,52.98
2023-03-21T19:36:51.490Z,53.31
2023-03-21T19:39:22.602Z,53.22
2023-03-21T19:41:51.123Z,53.40
2023-03-21T19:44:19.230Z,53.53
2023-03-21T19:46:48.538Z,53.93
2023-03-21T19:49:20.214Z,53.52
2023-03-21T19:51:47.915Z,53.88
2023-03-21T19:54:17.476Z,53.60
2023-03-21T19:56:47.447Z,53.48
2023-03-21T19:59:15.379Z,53.13
2023-03-21T20:01:43.543Z,53.32
2023-03-21T20:04:11.074Z,54.39
2023-03-21T20:06:38.725Z,55.02
2023-03-21T20:09:50.019Z,55.07
2023-03-21T20:11:54.677Z,54.97
2023-03-21T20:14:22.095Z,55.26
2023-03-21T20:16:49.427Z,55.29
2023-03-21T20:19:17.224Z,55.49
2023-03-21T20:21:52.329Z,55.61
2023-03-21T20:24:24.315Z,55.34
2023-03-21T20:26:53.804Z,55.50
2023-03-21T20:32:08.943Z,55.95
2023-03-21T20:34:37.015Z,56.01
2023-03-21T20:37:06.293Z,55.66
2023-03-21T20:39:34.362Z,55.87
2023-03-21T20:42:01.638Z,55.66
2023-03-21T20:44:48.388Z,56.06
2023-03-21T20:47:16.314Z,56.01
2023-03-21T20:49:44.306Z,56.18
2023-03-21T20:54:58.942Z,56.38
2023-03-21T20:57:27.283Z,56.45
2023-03-21T20:59:55.115Z,56.45
2023-03-21T21:02:22.896Z,56.43
2023-03-21T21:05:21.620Z,56.01
2023-03-21T21:07:37.931Z,56.17
2023-03-21T21:10:05.945Z,56.57
2023-03-21T21:12:33.238Z,56.50
2023-03-21T21:15:00.592Z,56.15
2023-03-21T21:18:01.626Z,56.41
2023-03-21T21:20:18.198Z,56.23
2023-03-21T21:23:01.093Z,56.35
2023-03-21T21:25:29.372Z,57.53
2023-03-21T21:27:56.697Z,57.00
2023-03-21T21:30:24.024Z,57.64
2023-03-21T21:32:51.334Z,57.28
2023-03-21T21:35:20.689Z,57.51
2023-03-21T21:37:48.926Z,57.58
2023-03-21T21:40:20.553Z,58.30
2023-03-21T21:42:48.044Z,58.19
2023-03-21T21:45:15.931Z,57.56
2023-03-21T21:47:43.976Z,58.72
2023-03-21T21:50:11.477Z,59.25
2023-03-21T21:52:38.720Z,59.42
2023-03-21T21:55:06.596Z,59.60
2023-03-21T21:57:34.784Z,59.45
2023-03-21T22:00:06.258Z,59.29
2023-03-21T22:02:40.223Z,59.49
2023-03-21T22:05:09.100Z,60.26
2023-03-21T22:07:37.684Z,60.92
2023-03-21T22:10:05.481Z,61.05
2023-03-21T22:12:32.727Z,61.18
2023-03-21T22:15:00.088Z,61.14
2023-03-21T22:17:27.385Z,61.23
2023-03-21T22:20:05.088Z,61.09
2023-03-21T22:22:34.143Z,61.08
2023-03-21T22:25:01.523Z,61.14
2023-03-21T22:27:28.822Z,61.04
2023-03-21T22:29:56.207Z,61.00
2023-03-21T22:32:23.519Z,61.50
2023-03-21T22:34:50.783Z,61.13
2023-03-21T22:37:18.009Z,61.02
2023-03-21T22:39:45.506Z,61.59
2023-03-21T22:42:12.722Z,62.61
2023-03-21T22:44:40.063Z,62.96
2023-03-21T22:47:08.421Z,62.76
2023-03-21T22:49:36.040Z,62.56
2023-03-21T22:52:03.631Z,63.15
2023-03-21T22:54:31.098Z,63.22
2023-03-21T22:56:59.069Z,62.87
2023-03-21T22:59:26.472Z,63.05
2023-03-21T23:01:53.762Z,62.70
2023-03-21T23:04:21.144Z,62.70
2023-03-21T23:06:48.519Z,62.75
2023-03-21T23:09:16.298Z,62.24
2023-03-21T23:11:45.422Z,62.70
2023-03-21T23:14:15.315Z,63.15
2023-03-21T23:16:45.080Z,64.21
2023-03-21T23:19:12.415Z,64.82
2023-03-21T23:21:39.811Z,64.91
2023-03-21T23:24:07.749Z,64.72
2023-03-21T23:26:35.300Z,64.83
2023-03-21T23:29:03.094Z,65.49
2023-03-21T23:31:33.078Z,66.22
2023-03-21T23:34:00.488Z,66.29
2023-03-21T23:36:27.901Z,66.01
2023-03-21T23:38:55.352Z,65.77
2023-03-21T23:41:23.573Z,65.80
2023-03-21T23:43:51.169Z,65.71
2023-03-21T23:46:18.619Z,65.39
2023-03-21T23:48:46.138Z,65.47
2023-03-21T23:51:14.561Z,65.64
2023-03-21T23:53:42.047Z,65.79
2023-03-21T23:56:16.662Z,65.75
2023-03-21T23:58:44.015Z,65.58
